sensor_id;sensor_type;location;lat;lon;timestamp;P1;durP1;ratioP1;P2;durP2;ratioP2
727;SDS011;347;48.780;9.158;2023-07-09T00:02:17;6.03;;;5.57;;
727;SDS011;347;48.780;9.158;2023-07-09T00:04:42;8.90;;;7.00;;
727;SDS011;347;48.780;9.158;2023-07-09T00:07:17;7.70;;;7.17;;
727;SDS011;347;48.780;9.158;2023-07-09T00:09:53;7.67;;;7.17;;
727;SDS011;347;48.780;9.158;2023-07-09T00:12:20;6.70;;;6.30;;
727;SDS011;347;48.780;9.158;2023-07-09T00:14:45;6.20;;;5.70;;
727;SDS011;347;48.780;9.158;2023-07-09T00:17:16;7.27;;;6.77;;
727;SDS011;347;48.780;9.158;2023-07-09T00:19:44;6.93;;;6.50;;
727;SDS011;347;48.780;9.158;2023-07-09T00:22:15;6.90;;;6.40;;
727;SDS011;347;48.780;9.158;2023-07-09T00:24:42;7.10;;;6.60;;
727;SDS011;347;48.780;9.158;2023-07-09T00:27:12;7.63;;;7.13;;
727;SDS011;347;48.780;9.158;2023-07-09T00:29:40;6.63;;;6.23;;
727;SDS011;347;48.780;9.158;2023-07-09T00:32:13;7.57;;;6.50;;
727;SDS011;347;48.780;9.158;2023-07-09T00:34:41;7.33;;;6.73;;
727;SDS011;347;48.780;9.158;2023-07-09T00:37:10;8.10;;;7.30;;
727;SDS011;347;48.780;9.158;2023-07-09T00:39:37;7.30;;;6.60;;
727;SDS011;347;48.780;9.158;2023-07-09T00:42:05;9.70;;;7.87;;
727;SDS011;347;48.780;9.158;2023-07-09T00:44:36;7.43;;;6.93;;
727;SDS011;347;48.780;9.158;2023-07-09T00:50:06;8.57;;;7.20;;
727;SDS011;347;48.780;9.158;2023-07-09T00:53:42;7.93;;;7.53;;
727;SDS011;347;48.780;9.158;2023-07-09T00:55:43;8.33;;;7.73;;
727;SDS011;347;48.780;9.158;2023-07-09T00:58:13;8.10;;;7.50;;
727;SDS011;347;48.780;9.158;2023-07-09T01:00:43;7.50;;;6.90;;
727;SDS011;347;48.780;9.158;2023-07-09T01:06:19;8.23;;;7.73;;
727;SDS011;347;48.780;9.158;2023-07-09T01:08:50;9.47;;;8.80;;
727;SDS011;347;48.780;9.158;2023-07-09T01:11:19;8.60;;;8.03;;
727;SDS011;347;48.780;9.158;2023-07-09T01:13:49;9.23;;;8.33;;
727;SDS011;347;48.780;9.158;2023-07-09T01:16:17;7.43;;;6.93;;
727;SDS011;347;48.780;9.158;2023-07-09T01:18:49;8.70;;;6.90;;
727;SDS011;347;48.780;9.158;2023-07-09T01:21:15;8.27;;;7.47;;
727;SDS011;347;48.780;9.158;2023-07-09T01:23:44;7.43;;;6.97;;
727;SDS011;347;48.780;9.158;2023-07-09T01:26:22;8.17;;;7.47;;
727;SDS011;347;48.780;9.158;2023-07-09T01:28:53;8.70;;;8.10;;
727;SDS011;347;48.780;9.158;2023-07-09T01:31:19;8.97;;;8.07;;
727;SDS011;347;48.780;9.158;2023-07-09T01:33:48;8.40;;;7.67;;
727;SDS011;347;48.780;9.158;2023-07-09T01:36:15;9.07;;;8.27;;
727;SDS011;347;48.780;9.158;2023-07-09T01:38:43;8.27;;;7.57;;
727;SDS011;347;48.780;9.158;2023-07-09T01:41:09;8.47;;;7.67;;
727;SDS011;347;48.780;9.158;2023-07-09T01:43:38;9.10;;;8.40;;
727;SDS011;347;48.780;9.158;2023-07-09T01:46:06;8.20;;;7.70;;
727;SDS011;347;48.780;9.158;2023-07-09T01:48:33;9.30;;;8.27;;
727;SDS011;347;48.780;9.158;2023-07-09T01:51:06;8.20;;;7.60;;
727;SDS011;347;48.780;9.158;2023-07-09T01:53:32;8.90;;;8.20;;
727;SDS011;347;48.780;9.158;2023-07-09T01:56:01;8.50;;;7.83;;
727;SDS011;347;48.780;9.158;2023-07-09T01:58:27;8.47;;;7.87;;
727;SDS011;347;48.780;9.158;2023-07-09T02:00:56;10.23;;;8.57;;
727;SDS011;347;48.780;9.158;2023-07-09T02:03:22;11.10;;;7.77;;
727;SDS011;347;48.780;9.158;2023-07-09T02:05:50;9.40;;;8.80;;
727;SDS011;347;48.780;9.158;2023-07-09T02:08:17;8.73;;;8.13;;
727;SDS011;347;48.780;9.158;2023-07-09T02:10:43;8.73;;;8.10;;
727;SDS011;347;48.780;9.158;2023-07-09T02:13:10;9.10;;;8.40;;
727;SDS011;347;48.780;9.158;2023-07-09T02:15:36;8.60;;;7.93;;
727;SDS011;347;48.780;9.158;2023-07-09T02:18:01;8.53;;;8.03;;
727;SDS011;347;48.780;9.158;2023-07-09T02:20:27;8.77;;;8.17;;
727;SDS011;347;48.780;9.158;2023-07-09T02:22:53;9.03;;;8.27;;
727;SDS011;347;48.780;9.158;2023-07-09T02:25:19;9.33;;;8.70;;
727;SDS011;347;48.780;9.158;2023-07-09T02:27:44;9.90;;;9.20;;
727;SDS011;347;48.780;9.158;2023-07-09T02:30:10;9.47;;;8.67;;
727;SDS011;347;48.780;9.158;2023-07-09T02:32:36;9.40;;;8.70;;
727;SDS011;347;48.780;9.158;2023-07-09T02:35:02;9.43;;;8.60;;
727;SDS011;347;48.780;9.158;2023-07-09T02:37:29;9.97;;;9.07;;
727;SDS011;347;48.780;9.158;2023-07-09T02:39:55;9.77;;;8.97;;
727;SDS011;347;48.780;9.158;2023-07-09T02:42:21;8.97;;;8.33;;
727;SDS011;347;48.780;9.158;2023-07-09T02:44:48;12.83;;;8.53;;
727;SDS011;347;48.780;9.158;2023-07-09T02:47:14;9.33;;;8.70;;
727;SDS011;347;48.780;9.158;2023-07-09T02:49:39;9.70;;;8.97;;
727;SDS011;347;48.780;9.158;2023-07-09T02:52:05;9.43;;;8.83;;
727;SDS011;347;48.780;9.158;2023-07-09T02:54:31;9.27;;;8.57;;
727;SDS011;347;48.780;9.158;2023-07-09T02:56:57;8.87;;;8.27;;
727;SDS011;347;48.780;9.158;2023-07-09T02:59:23;8.93;;;8.33;;
727;SDS011;347;48.780;9.158;2023-07-09T03:01:50;9.60;;;8.87;;
727;SDS011;347;48.780;9.158;2023-07-09T03:04:16;9.27;;;8.57;;
727;SDS011;347;48.780;9.158;2023-07-09T03:06:45;8.57;;;7.90;;
727;SDS011;347;48.780;9.158;2023-07-09T03:09:10;9.20;;;8.50;;
727;SDS011;347;48.780;9.158;2023-07-09T03:11:36;8.67;;;7.97;;
727;SDS011;347;48.780;9.158;2023-07-09T03:14:02;8.27;;;7.77;;
727;SDS011;347;48.780;9.158;2023-07-09T03:16:29;10.07;;;8.50;;
727;SDS011;347;48.780;9.158;2023-07-09T03:18:56;8.53;;;7.97;;
727;SDS011;347;48.780;9.158;2023-07-09T03:21:22;8.33;;;7.80;;
727;SDS011;347;48.780;9.158;2023-07-09T03:23:49;8.57;;;8.07;;
727;SDS011;347;48.780;9.158;2023-07-09T03:26:15;8.40;;;7.80;;
727;SDS011;347;48.780;9.158;2023-07-09T03:28:40;8.03;;;7.40;;
727;SDS011;347;48.780;9.158;2023-07-09T03:31:06;8.23;;;7.70;;
727;SDS011;347;48.780;9.158;2023-07-09T03:33:32;8.40;;;7.90;;
727;SDS011;347;48.780;9.158;2023-07-09T03:35:58;8.80;;;8.20;;
727;SDS011;347;48.780;9.158;2023-07-09T03:38:23;8.57;;;7.97;;
727;SDS011;347;48.780;9.158;2023-07-09T03:40:49;8.47;;;7.67;;
727;SDS011;347;48.780;9.158;2023-07-09T03:43:19;8.70;;;7.90;;
727;SDS011;347;48.780;9.158;2023-07-09T03:45:45;9.50;;;8.80;;
727;SDS011;347;48.780;9.158;2023-07-09T03:48:11;9.40;;;8.70;;
727;SDS011;347;48.780;9.158;2023-07-09T03:50:38;8.10;;;7.50;;
727;SDS011;347;48.780;9.158;2023-07-09T03:53:04;8.47;;;7.87;;
727;SDS011;347;48.780;9.158;2023-07-09T03:55:30;9.20;;;8.60;;
727;SDS011;347;48.780;9.158;2023-07-09T03:57:56;9.40;;;8.70;;
727;SDS011;347;48.780;9.158;2023-07-09T04:00:22;10.07;;;9.27;;
727;SDS011;347;48.780;9.158;2023-07-09T04:02:49;8.40;;;7.90;;
727;SDS011;347;48.780;9.158;2023-07-09T04:05:15;8.93;;;8.13;;
727;SDS011;347;48.780;9.158;2023-07-09T04:07:42;8.60;;;8.10;;
727;SDS011;347;48.780;9.158;2023-07-09T04:10:09;9.87;;;8.70;;
727;SDS011;347;48.780;9.158;2023-07-09T04:12:35;8.83;;;8.23;;
727;SDS011;347;48.780;9.158;2023-07-09T04:15:02;9.17;;;8.57;;
727;SDS011;347;48.780;9.158;2023-07-09T04:17:28;7.57;;;7.17;;
727;SDS011;347;48.780;9.158;2023-07-09T04:19:54;11.30;;;8.30;;
727;SDS011;347;48.780;9.158;2023-07-09T04:22:20;9.47;;;8.57;;
727;SDS011;347;48.780;9.158;2023-07-09T04:24:46;8.80;;;8.27;;
727;SDS011;347;48.780;9.158;2023-07-09T04:27:12;8.87;;;8.13;;
727;SDS011;347;48.780;9.158;2023-07-09T04:29:38;8.00;;;7.50;;
727;SDS011;347;48.780;9.158;2023-07-09T04:32:08;8.07;;;7.57;;
727;SDS011;347;48.780;9.158;2023-07-09T04:34:38;8.43;;;7.83;;
727;SDS011;347;48.780;9.158;2023-07-09T04:37:05;9.00;;;8.20;;
727;SDS011;347;48.780;9.158;2023-07-09T04:39:32;9.90;;;9.20;;
727;SDS011;347;48.780;9.158;2023-07-09T04:41:58;9.00;;;8.30;;
727;SDS011;347;48.780;9.158;2023-07-09T04:44:24;9.10;;;8.30;;
727;SDS011;347;48.780;9.158;2023-07-09T04:46:50;8.90;;;8.20;;
727;SDS011;347;48.780;9.158;2023-07-09T04:49:15;8.67;;;7.97;;
727;SDS011;347;48.780;9.158;2023-07-09T04:51:41;9.33;;;8.73;;
727;SDS011;347;48.780;9.158;2023-07-09T04:54:06;9.30;;;8.43;;
727;SDS011;347;48.780;9.158;2023-07-09T04:56:32;8.03;;;7.53;;
727;SDS011;347;48.780;9.158;2023-07-09T04:58:58;9.00;;;8.40;;
727;SDS011;347;48.780;9.158;2023-07-09T05:01:24;8.10;;;7.60;;
727;SDS011;347;48.780;9.158;2023-07-09T05:03:50;8.67;;;8.17;;
727;SDS011;347;48.780;9.158;2023-07-09T05:06:16;8.67;;;7.87;;
727;SDS011;347;48.780;9.158;2023-07-09T05:08:41;7.83;;;7.23;;
727;SDS011;347;48.780;9.158;2023-07-09T05:11:08;10.17;;;7.80;;
727;SDS011;347;48.780;9.158;2023-07-09T05:13:33;8.63;;;7.77;;
727;SDS011;347;48.780;9.158;2023-07-09T05:15:59;8.90;;;8.20;;
727;SDS011;347;48.780;9.158;2023-07-09T05:18:24;8.10;;;7.50;;
727;SDS011;347;48.780;9.158;2023-07-09T05:20:50;9.73;;;9.03;;
727;SDS011;347;48.780;9.158;2023-07-09T05:23:16;8.53;;;7.90;;
727;SDS011;347;48.780;9.158;2023-07-09T05:25:41;8.40;;;7.70;;
727;SDS011;347;48.780;9.158;2023-07-09T05:28:07;8.30;;;7.70;;
727;SDS011;347;48.780;9.158;2023-07-09T05:30:33;10.23;;;9.30;;
727;SDS011;347;48.780;9.158;2023-07-09T05:32:59;9.70;;;8.90;;
727;SDS011;347;48.780;9.158;2023-07-09T05:35:25;9.00;;;8.30;;
727;SDS011;347;48.780;9.158;2023-07-09T05:37:55;8.07;;;7.27;;
727;SDS011;347;48.780;9.158;2023-07-09T05:40:21;8.07;;;7.57;;
727;SDS011;347;48.780;9.158;2023-07-09T05:42:47;8.43;;;7.53;;
727;SDS011;347;48.780;9.158;2023-07-09T05:45:14;8.47;;;7.77;;
727;SDS011;347;48.780;9.158;2023-07-09T05:47:40;8.60;;;7.90;;
727;SDS011;347;48.780;9.158;2023-07-09T05:50:06;9.00;;;8.30;;
727;SDS011;347;48.780;9.158;2023-07-09T05:52:33;9.23;;;8.30;;
727;SDS011;347;48.780;9.158;2023-07-09T05:54:58;11.23;;;9.90;;
727;SDS011;347;48.780;9.158;2023-07-09T05:57:24;8.80;;;8.00;;
727;SDS011;347;48.780;9.158;2023-07-09T05:59:50;8.40;;;7.80;;
727;SDS011;347;48.780;9.158;2023-07-09T06:02:17;8.10;;;7.50;;
727;SDS011;347;48.780;9.158;2023-07-09T06:04:45;8.50;;;8.00;;
727;SDS011;347;48.780;9.158;2023-07-09T06:07:12;8.00;;;7.43;;
727;SDS011;347;48.780;9.158;2023-07-09T06:09:40;8.77;;;8.03;;
727;SDS011;347;48.780;9.158;2023-07-09T06:12:06;8.87;;;8.33;;
727;SDS011;347;48.780;9.158;2023-07-09T06:14:33;9.13;;;8.43;;
727;SDS011;347;48.780;9.158;2023-07-09T06:16:59;9.27;;;8.67;;
727;SDS011;347;48.780;9.158;2023-07-09T06:19:25;8.63;;;8.03;;
727;SDS011;347;48.780;9.158;2023-07-09T06:21:51;8.60;;;8.10;;
727;SDS011;347;48.780;9.158;2023-07-09T06:24:17;9.07;;;8.37;;
727;SDS011;347;48.780;9.158;2023-07-09T06:26:43;9.07;;;8.50;;
727;SDS011;347;48.780;9.158;2023-07-09T06:29:09;13.50;;;8.03;;
727;SDS011;347;48.780;9.158;2023-07-09T06:31:34;8.60;;;8.00;;
727;SDS011;347;48.780;9.158;2023-07-09T06:34:02;8.77;;;8.03;;
727;SDS011;347;48.780;9.158;2023-07-09T06:36:28;9.10;;;8.50;;
727;SDS011;347;48.780;9.158;2023-07-09T06:38:53;8.20;;;7.60;;
727;SDS011;347;48.780;9.158;2023-07-09T06:41:19;8.57;;;7.87;;
727;SDS011;347;48.780;9.158;2023-07-09T06:43:44;8.80;;;8.20;;
727;SDS011;347;48.780;9.158;2023-07-09T06:46:11;8.43;;;7.83;;
727;SDS011;347;48.780;9.158;2023-07-09T06:48:38;9.20;;;8.40;;
727;SDS011;347;48.780;9.158;2023-07-09T06:51:04;8.87;;;8.17;;
727;SDS011;347;48.780;9.158;2023-07-09T06:53:29;9.17;;;8.60;;
727;SDS011;347;48.780;9.158;2023-07-09T06:55:55;9.77;;;9.07;;
727;SDS011;347;48.780;9.158;2023-07-09T06:58:24;8.70;;;8.20;;
727;SDS011;347;48.780;9.158;2023-07-09T07:00:53;8.73;;;8.13;;
727;SDS011;347;48.780;9.158;2023-07-09T07:03:19;7.87;;;7.23;;
727;SDS011;347;48.780;9.158;2023-07-09T07:05:45;8.57;;;7.87;;
727;SDS011;347;48.780;9.158;2023-07-09T07:08:14;8.77;;;8.13;;
727;SDS011;347;48.780;9.158;2023-07-09T07:10:41;8.10;;;7.40;;
727;SDS011;347;48.780;9.158;2023-07-09T07:13:07;8.27;;;7.77;;
727;SDS011;347;48.780;9.158;2023-07-09T07:15:33;9.20;;;8.60;;
727;SDS011;347;48.780;9.158;2023-07-09T07:18:01;10.13;;;9.47;;
727;SDS011;347;48.780;9.158;2023-07-09T07:20:27;8.00;;;7.50;;
727;SDS011;347;48.780;9.158;2023-07-09T07:22:52;10.80;;;9.90;;
727;SDS011;347;48.780;9.158;2023-07-09T07:25:18;9.10;;;8.50;;
727;SDS011;347;48.780;9.158;2023-07-09T07:27:43;9.27;;;8.53;;
727;SDS011;347;48.780;9.158;2023-07-09T07:30:09;9.17;;;8.40;;
727;SDS011;347;48.780;9.158;2023-07-09T07:32:38;9.23;;;8.60;;
727;SDS011;347;48.780;9.158;2023-07-09T07:35:09;9.33;;;8.70;;
727;SDS011;347;48.780;9.158;2023-07-09T07:37:34;11.87;;;8.80;;
727;SDS011;347;48.780;9.158;2023-07-09T07:40:00;9.37;;;8.77;;
727;SDS011;347;48.780;9.158;2023-07-09T07:42:27;9.83;;;8.93;;
727;SDS011;347;48.780;9.158;2023-07-09T07:44:53;9.80;;;9.10;;
727;SDS011;347;48.780;9.158;2023-07-09T07:47:19;9.70;;;8.80;;
727;SDS011;347;48.780;9.158;2023-07-09T07:49:44;9.80;;;9.20;;
727;SDS011;347;48.780;9.158;2023-07-09T07:52:10;9.57;;;8.57;;
727;SDS011;347;48.780;9.158;2023-07-09T07:54:35;9.57;;;9.00;;
727;SDS011;347;48.780;9.158;2023-07-09T07:57:01;10.67;;;9.90;;
727;SDS011;347;48.780;9.158;2023-07-09T07:59:27;10.60;;;9.63;;
727;SDS011;347;48.780;9.158;2023-07-09T08:01:53;8.97;;;8.47;;
727;SDS011;347;48.780;9.158;2023-07-09T08:04:19;9.47;;;8.80;;
727;SDS011;347;48.780;9.158;2023-07-09T08:06:44;9.37;;;8.77;;
727;SDS011;347;48.780;9.158;2023-07-09T08:09:11;10.10;;;9.50;;
727;SDS011;347;48.780;9.158;2023-07-09T08:11:36;10.40;;;9.50;;
727;SDS011;347;48.780;9.158;2023-07-09T08:14:02;9.77;;;9.03;;
727;SDS011;347;48.780;9.158;2023-07-09T08:16:30;10.00;;;9.30;;
727;SDS011;347;48.780;9.158;2023-07-09T08:18:56;10.17;;;9.47;;
727;SDS011;347;48.780;9.158;2023-07-09T08:21:22;9.60;;;9.00;;
727;SDS011;347;48.780;9.158;2023-07-09T08:23:47;10.23;;;9.60;;
727;SDS011;347;48.780;9.158;2023-07-09T08:26:13;9.47;;;8.83;;
727;SDS011;347;48.780;9.158;2023-07-09T08:28:38;9.87;;;8.90;;
727;SDS011;347;48.780;9.158;2023-07-09T08:31:04;9.87;;;9.30;;
727;SDS011;347;48.780;9.158;2023-07-09T08:33:30;10.43;;;9.63;;
727;SDS011;347;48.780;9.158;2023-07-09T08:35:56;9.43;;;8.93;;
727;SDS011;347;48.780;9.158;2023-07-09T08:38:22;9.10;;;8.60;;
727;SDS011;347;48.780;9.158;2023-07-09T08:40:56;10.40;;;9.70;;
727;SDS011;347;48.780;9.158;2023-07-09T08:43:54;10.33;;;9.70;;
727;SDS011;347;48.780;9.158;2023-07-09T08:49:03;9.30;;;8.60;;
727;SDS011;347;48.780;9.158;2023-07-09T08:51:44;9.50;;;8.80;;
727;SDS011;347;48.780;9.158;2023-07-09T08:54:27;9.27;;;8.60;;
727;SDS011;347;48.780;9.158;2023-07-09T08:56:58;9.37;;;8.70;;
727;SDS011;347;48.780;9.158;2023-07-09T08:59:33;11.10;;;9.00;;
727;SDS011;347;48.780;9.158;2023-07-09T09:01:59;10.70;;;9.93;;
727;SDS011;347;48.780;9.158;2023-07-09T09:04:29;9.50;;;8.90;;
727;SDS011;347;48.780;9.158;2023-07-09T09:07:02;9.70;;;8.90;;
727;SDS011;347;48.780;9.158;2023-07-09T09:09:49;9.73;;;9.00;;
727;SDS011;347;48.780;9.158;2023-07-09T09:12:26;8.80;;;8.20;;
727;SDS011;347;48.780;9.158;2023-07-09T09:15:02;9.20;;;8.60;;
727;SDS011;347;48.780;9.158;2023-07-09T09:17:40;9.40;;;8.60;;
727;SDS011;347;48.780;9.158;2023-07-09T09:20:24;9.23;;;8.70;;
727;SDS011;347;48.780;9.158;2023-07-09T09:25:23;9.53;;;8.63;;
727;SDS011;347;48.780;9.158;2023-07-09T09:27:55;10.10;;;9.50;;
727;SDS011;347;48.780;9.158;2023-07-09T09:30:22;9.30;;;8.40;;
727;SDS011;347;48.780;9.158;2023-07-09T09:32:57;9.17;;;8.57;;
727;SDS011;347;48.780;9.158;2023-07-09T09:35:31;9.57;;;8.97;;
727;SDS011;347;48.780;9.158;2023-07-09T09:38:09;9.50;;;8.80;;
727;SDS011;347;48.780;9.158;2023-07-09T09:40:37;9.33;;;8.63;;
727;SDS011;347;48.780;9.158;2023-07-09T09:43:07;8.30;;;7.80;;
727;SDS011;347;48.780;9.158;2023-07-09T09:45:47;10.30;;;8.30;;
727;SDS011;347;48.780;9.158;2023-07-09T09:48:14;7.93;;;7.33;;
727;SDS011;347;48.780;9.158;2023-07-09T09:50:44;8.17;;;7.60;;
727;SDS011;347;48.780;9.158;2023-07-09T09:53:12;8.77;;;8.07;;
727;SDS011;347;48.780;9.158;2023-07-09T09:55:48;8.70;;;8.10;;
727;SDS011;347;48.780;9.158;2023-07-09T09:58:16;8.27;;;7.33;;
727;SDS011;347;48.780;9.158;2023-07-09T10:00:50;8.50;;;7.67;;
727;SDS011;347;48.780;9.158;2023-07-09T10:03:17;8.57;;;8.07;;
727;SDS011;347;48.780;9.158;2023-07-09T10:05:44;8.60;;;8.10;;
727;SDS011;347;48.780;9.158;2023-07-09T10:13:55;6.83;;;6.27;;
727;SDS011;347;48.780;9.158;2023-07-09T10:16:32;7.77;;;7.30;;
727;SDS011;347;48.780;9.158;2023-07-09T10:19:14;7.07;;;6.47;;
727;SDS011;347;48.780;9.158;2023-07-09T10:21:56;7.10;;;6.50;;
727;SDS011;347;48.780;9.158;2023-07-09T10:27:15;7.00;;;6.60;;
727;SDS011;347;48.780;9.158;2023-07-09T10:40:31;7.20;;;6.60;;
727;SDS011;347;48.780;9.158;2023-07-09T10:43:03;7.67;;;7.27;;
727;SDS011;347;48.780;9.158;2023-07-09T10:48:11;7.90;;;7.40;;
727;SDS011;347;48.780;9.158;2023-07-09T10:50:44;7.43;;;6.87;;
727;SDS011;347;48.780;9.158;2023-07-09T10:53:15;7.33;;;6.93;;
727;SDS011;347;48.780;9.158;2023-07-09T10:56:00;7.67;;;7.17;;
727;SDS011;347;48.780;9.158;2023-07-09T10:58:39;7.10;;;6.60;;
727;SDS011;347;48.780;9.158;2023-07-09T11:01:11;7.20;;;6.70;;
727;SDS011;347;48.780;9.158;2023-07-09T11:03:49;7.10;;;6.60;;
727;SDS011;347;48.780;9.158;2023-07-09T11:06:22;7.00;;;6.60;;
727;SDS011;347;48.780;9.158;2023-07-09T11:08:57;7.80;;;7.20;;
727;SDS011;347;48.780;9.158;2023-07-09T11:11:25;6.93;;;6.50;;
727;SDS011;347;48.780;9.158;2023-07-09T11:14:06;7.40;;;6.77;;
727;SDS011;347;48.780;9.158;2023-07-09T11:16:45;7.40;;;7.00;;
727;SDS011;347;48.780;9.158;2023-07-09T11:19:18;6.83;;;6.33;;
727;SDS011;347;48.780;9.158;2023-07-09T11:22:13;6.50;;;6.10;;
727;SDS011;347;48.780;9.158;2023-07-09T11:27:50;9.07;;;8.27;;
727;SDS011;347;48.780;9.158;2023-07-09T11:30:28;7.07;;;6.60;;
727;SDS011;347;48.780;9.158;2023-07-09T11:33:02;8.77;;;8.17;;
727;SDS011;347;48.780;9.158;2023-07-09T11:35:30;7.20;;;6.70;;
727;SDS011;347;48.780;9.158;2023-07-09T11:38:19;7.87;;;7.30;;
727;SDS011;347;48.780;9.158;2023-07-09T11:40:52;7.03;;;6.63;;
727;SDS011;347;48.780;9.158;2023-07-09T11:44:00;8.57;;;7.70;;
727;SDS011;347;48.780;9.158;2023-07-09T11:46:14;9.20;;;7.60;;
727;SDS011;347;48.780;9.158;2023-07-09T11:48:44;8.30;;;7.37;;
727;SDS011;347;48.780;9.158;2023-07-09T11:51:14;8.03;;;7.33;;
727;SDS011;347;48.780;9.158;2023-07-09T11:53:52;7.90;;;7.10;;
727;SDS011;347;48.780;9.158;2023-07-09T11:56:22;8.17;;;7.53;;
727;SDS011;347;48.780;9.158;2023-07-09T11:58:57;7.20;;;6.70;;
727;SDS011;347;48.780;9.158;2023-07-09T12:01:24;6.87;;;6.37;;
727;SDS011;347;48.780;9.158;2023-07-09T12:04:04;8.30;;;7.60;;
727;SDS011;347;48.780;9.158;2023-07-09T12:06:31;8.63;;;7.83;;
727;SDS011;347;48.780;9.158;2023-07-09T12:08:58;7.20;;;6.60;;
727;SDS011;347;48.780;9.158;2023-07-09T12:11:28;6.90;;;6.40;;
727;SDS011;347;48.780;9.158;2023-07-09T12:14:02;6.50;;;6.00;;
727;SDS011;347;48.780;9.158;2023-07-09T12:16:35;7.37;;;6.87;;
727;SDS011;347;48.780;9.158;2023-07-09T12:19:03;7.50;;;7.00;;
727;SDS011;347;48.780;9.158;2023-07-09T12:21:29;11.50;;;7.57;;
727;SDS011;347;48.780;9.158;2023-07-09T12:23:56;7.03;;;6.33;;
727;SDS011;347;48.780;9.158;2023-07-09T12:26:22;7.43;;;6.80;;
727;SDS011;347;48.780;9.158;2023-07-09T12:28:52;7.27;;;6.60;;
727;SDS011;347;48.780;9.158;2023-07-09T12:31:21;7.23;;;6.60;;
727;SDS011;347;48.780;9.158;2023-07-09T12:33:55;8.03;;;6.60;;
727;SDS011;347;48.780;9.158;2023-07-09T12:36:23;7.80;;;6.87;;
727;SDS011;347;48.780;9.158;2023-07-09T12:38:57;8.00;;;7.40;;
727;SDS011;347;48.780;9.158;2023-07-09T12:41:28;7.30;;;6.70;;
727;SDS011;347;48.780;9.158;2023-07-09T12:43:57;10.93;;;7.20;;
727;SDS011;347;48.780;9.158;2023-07-09T12:46:22;9.37;;;8.57;;
727;SDS011;347;48.780;9.158;2023-07-09T12:48:49;9.37;;;8.00;;
727;SDS011;347;48.780;9.158;2023-07-09T12:51:20;7.20;;;6.70;;
727;SDS011;347;48.780;9.158;2023-07-09T12:53:59;8.47;;;7.97;;
727;SDS011;347;48.780;9.158;2023-07-09T12:56:28;7.80;;;7.10;;
727;SDS011;347;48.780;9.158;2023-07-09T12:59:01;8.30;;;7.33;;
727;SDS011;347;48.780;9.158;2023-07-09T13:01:32;7.10;;;6.60;;
727;SDS011;347;48.780;9.158;2023-07-09T13:04:00;7.30;;;6.80;;
727;SDS011;347;48.780;9.158;2023-07-09T13:06:30;7.67;;;7.00;;
727;SDS011;347;48.780;9.158;2023-07-09T13:09:00;7.97;;;7.37;;
727;SDS011;347;48.780;9.158;2023-07-09T13:11:34;7.90;;;7.30;;
727;SDS011;347;48.780;9.158;2023-07-09T13:14:03;7.47;;;6.97;;
727;SDS011;347;48.780;9.158;2023-07-09T13:16:37;8.40;;;7.70;;
727;SDS011;347;48.780;9.158;2023-07-09T13:19:04;8.67;;;7.80;;
727;SDS011;347;48.780;9.158;2023-07-09T13:21:29;7.17;;;6.53;;
727;SDS011;347;48.780;9.158;2023-07-09T13:23:55;8.17;;;7.40;;
727;SDS011;347;48.780;9.158;2023-07-09T13:26:21;8.00;;;7.20;;
727;SDS011;347;48.780;9.158;2023-07-09T13:28:46;7.47;;;6.60;;
727;SDS011;347;48.780;9.158;2023-07-09T13:31:17;7.53;;;6.83;;
727;SDS011;347;48.780;9.158;2023-07-09T13:33:49;6.90;;;6.30;;
727;SDS011;347;48.780;9.158;2023-07-09T13:36:19;6.47;;;5.97;;
727;SDS011;347;48.780;9.158;2023-07-09T13:38:45;11.13;;;6.90;;
727;SDS011;347;48.780;9.158;2023-07-09T13:41:12;6.63;;;5.93;;
727;SDS011;347;48.780;9.158;2023-07-09T13:43:41;7.60;;;7.03;;
727;SDS011;347;48.780;9.158;2023-07-09T13:46:08;7.13;;;6.50;;
727;SDS011;347;48.780;9.158;2023-07-09T13:48:35;6.70;;;6.20;;
727;SDS011;347;48.780;9.158;2023-07-09T13:51:19;8.10;;;6.63;;
727;SDS011;347;48.780;9.158;2023-07-09T13:53:48;7.50;;;7.00;;
727;SDS011;347;48.780;9.158;2023-07-09T13:56:16;6.20;;;5.80;;
727;SDS011;347;48.780;9.158;2023-07-09T13:58:42;6.63;;;5.60;;
727;SDS011;347;48.780;9.158;2023-07-09T14:01:12;5.80;;;5.37;;
727;SDS011;347;48.780;9.158;2023-07-09T14:03:40;8.43;;;6.10;;
727;SDS011;347;48.780;9.158;2023-07-09T14:06:08;7.03;;;6.47;;
727;SDS011;347;48.780;9.158;2023-07-09T14:08:38;6.57;;;6.07;;
727;SDS011;347;48.780;9.158;2023-07-09T14:11:08;7.03;;;6.13;;
727;SDS011;347;48.780;9.158;2023-07-09T14:13:39;6.80;;;6.30;;
727;SDS011;347;48.780;9.158;2023-07-09T14:16:05;6.50;;;6.03;;
727;SDS011;347;48.780;9.158;2023-07-09T14:18:31;6.40;;;5.90;;
727;SDS011;347;48.780;9.158;2023-07-09T14:20:57;5.93;;;5.53;;
727;SDS011;347;48.780;9.158;2023-07-09T14:23:23;6.07;;;5.63;;
727;SDS011;347;48.780;9.158;2023-07-09T14:25:48;7.07;;;6.50;;
727;SDS011;347;48.780;9.158;2023-07-09T14:28:15;7.90;;;7.17;;
727;SDS011;347;48.780;9.158;2023-07-09T14:30:43;6.03;;;5.63;;
727;SDS011;347;48.780;9.158;2023-07-09T14:33:15;10.00;;;6.33;;
727;SDS011;347;48.780;9.158;2023-07-09T14:35:45;7.17;;;6.57;;
727;SDS011;347;48.780;9.158;2023-07-09T14:40:48;6.33;;;6.00;;
727;SDS011;347;48.780;9.158;2023-07-09T14:43:15;6.87;;;6.27;;
727;SDS011;347;48.780;9.158;2023-07-09T14:45:41;7.23;;;6.63;;
727;SDS011;347;48.780;9.158;2023-07-09T14:48:17;6.30;;;5.83;;
727;SDS011;347;48.780;9.158;2023-07-09T14:50:45;9.60;;;6.73;;
727;SDS011;347;48.780;9.158;2023-07-09T14:53:12;6.33;;;5.93;;
727;SDS011;347;48.780;9.158;2023-07-09T14:55:38;6.50;;;6.10;;
727;SDS011;347;48.780;9.158;2023-07-09T14:58:08;6.30;;;5.70;;
727;SDS011;347;48.780;9.158;2023-07-09T15:00:44;7.30;;;6.70;;
727;SDS011;347;48.780;9.158;2023-07-09T15:03:12;6.50;;;5.83;;
727;SDS011;347;48.780;9.158;2023-07-09T15:05:48;6.10;;;5.70;;
727;SDS011;347;48.780;9.158;2023-07-09T15:08:15;6.57;;;5.97;;
727;SDS011;347;48.780;9.158;2023-07-09T15:10:43;6.70;;;6.30;;
727;SDS011;347;48.780;9.158;2023-07-09T15:13:16;6.37;;;5.97;;
727;SDS011;347;48.780;9.158;2023-07-09T15:15:43;8.00;;;5.87;;
727;SDS011;347;48.780;9.158;2023-07-09T15:18:10;5.73;;;5.40;;
727;SDS011;347;48.780;9.158;2023-07-09T15:20:37;6.20;;;5.70;;
727;SDS011;347;48.780;9.158;2023-07-09T15:23:04;5.43;;;5.07;;
727;SDS011;347;48.780;9.158;2023-07-09T15:25:30;5.90;;;5.40;;
727;SDS011;347;48.780;9.158;2023-07-09T15:27:56;6.27;;;5.97;;
727;SDS011;347;48.780;9.158;2023-07-09T15:30:23;6.33;;;5.83;;
727;SDS011;347;48.780;9.158;2023-07-09T15:32:54;8.00;;;6.17;;
727;SDS011;347;48.780;9.158;2023-07-09T15:35:25;6.93;;;6.27;;
727;SDS011;347;48.780;9.158;2023-07-09T15:37:55;6.73;;;6.23;;
727;SDS011;347;48.780;9.158;2023-07-09T15:40:22;5.80;;;5.43;;
727;SDS011;347;48.780;9.158;2023-07-09T15:42:51;6.27;;;5.77;;
727;SDS011;347;48.780;9.158;2023-07-09T15:45:19;5.50;;;5.10;;
727;SDS011;347;48.780;9.158;2023-07-09T15:47:45;6.17;;;5.70;;
727;SDS011;347;48.780;9.158;2023-07-09T15:50:21;5.90;;;5.50;;
727;SDS011;347;48.780;9.158;2023-07-09T15:52:49;7.77;;;5.03;;
727;SDS011;347;48.780;9.158;2023-07-09T15:55:16;7.10;;;6.40;;
727;SDS011;347;48.780;9.158;2023-07-09T15:57:45;6.53;;;5.93;;
727;SDS011;347;48.780;9.158;2023-07-09T16:00:14;6.00;;;5.57;;
727;SDS011;347;48.780;9.158;2023-07-09T16:02:41;6.53;;;6.03;;
727;SDS011;347;48.780;9.158;2023-07-09T16:05:28;7.73;;;6.93;;
727;SDS011;347;48.780;9.158;2023-07-09T16:07:56;5.77;;;5.37;;
727;SDS011;347;48.780;9.158;2023-07-09T16:10:24;9.43;;;6.30;;
727;SDS011;347;48.780;9.158;2023-07-09T16:12:51;7.63;;;6.20;;
727;SDS011;347;48.780;9.158;2023-07-09T16:15:18;5.80;;;5.40;;
727;SDS011;347;48.780;9.158;2023-07-09T16:17:45;7.10;;;6.60;;
727;SDS011;347;48.780;9.158;2023-07-09T16:20:13;6.23;;;5.93;;
727;SDS011;347;48.780;9.158;2023-07-09T16:22:41;7.07;;;6.30;;
727;SDS011;347;48.780;9.158;2023-07-09T16:25:18;5.83;;;5.43;;
727;SDS011;347;48.780;9.158;2023-07-09T16:27:46;6.63;;;6.03;;
727;SDS011;347;48.780;9.158;2023-07-09T16:30:14;7.70;;;5.60;;
727;SDS011;347;48.780;9.158;2023-07-09T16:32:40;6.57;;;6.10;;
727;SDS011;347;48.780;9.158;2023-07-09T16:35:06;7.20;;;5.60;;